Main page
METAR-TAF:

METAR-TAF

Airports :

Agen La Garenne Airport

Agen, France

latitude: 44-11N, longitude: 000-36E, elevation: 61 m

Current weather observation

The report was made 27 minutes ago, at 21:00 UTC
Wind 6 kt from the North
Temperature 1°C
Humidity 75%
Pressure 1033 hPa
Visibility 10 km or more
no clouds below 1500 m and no cumulonimbus

METAR: LFBA 212100Z AUTO 35006KT CAVOK 01/M03 Q1033 NOSIG

Time: 22:27 (21:27 UTC)

Forecast

The report was made 4 hours and 27 minutes ago, at 17:00 UTC
Forecast valid from 21 at 18 UTC to 22 at 03 UTC
Wind 5 kt from the North
Visibility 10 km or more
no clouds below 1500 m and no cumulonimbus
Probability 30% :
Temporary
from 22 at 00 UTC to 22 at 03 UTC
Visibility: 4000 m
mist

TAF: LFBA 211700Z 2118/2203 36005KT CAVOK PROB30 TEMPO 2200/2203 4000 BR NSC

Weather observations and forecasts of more than 4000 airports (METAR and TAF reports).

The available stations are represented by yellow and red dots on the map.

Hover mouse over dot to see the name of the station.

Then click to see weather observations and forecasts.

To change the map : click on the green buttons with a black cross to zoom in, on the green button with a dash to zoom out, or on the green arrows for adjacent maps.


METAR-TAF: